Time;durP1;ratioP1;P1;durP2;ratioP2;P2;SDS_P1;SDS_P2;PMS_P1;PMS_P2;Temp;Humidity;BMP_temperature;BMP_pressure;BME280_temperature;BME280_humidity;BME280_pressure;Samples;Min_cycle;Max_cycle;Signal;HPM_P1;HPM_P2
2023/04/10 00:01:51;;;;;;;24.58;15.20;;;;;;;;;;5003469;28;93408;-74
2023/04/10 00:04:17;;;;;;;27.15;15.10;;;;;;;;;;4994655;28;93443;-74
2023/04/10 00:06:44;;;;;;;21.40;14.23;;;;;;;;;;4993277;28;92824;-74
2023/04/10 00:09:10;;;;;;;19.20;12.82;;;;;;;;;;4997804;28;95185;-73
2023/04/10 00:11:36;;;;;;;20.13;12.32;;;;;;;;;;5001769;28;92463;-73
2023/04/10 00:14:03;;;;;;;20.40;12.10;;;;;;;;;;5013330;28;92569;-71
2023/04/10 00:16:29;;;;;;;16.10;11.68;;;;;;;;;;5001470;28;93160;-70
2023/04/10 00:18:55;;;;;;;16.15;11.45;;;;;;;;;;5010952;28;92342;-74
2023/04/10 00:21:22;;;;;;;17.77;12.15;;;;;;;;;;5020487;28;92084;-73
2023/04/10 00:23:48;;;;;;;19.88;11.57;;;;;;;;;;5020629;28;93562;-74
2023/04/10 00:26:14;;;;;;;16.95;10.70;;;;;;;;;;5021229;28;91461;-74
2023/04/10 00:28:41;;;;;;;17.63;12.07;;;;;;;;;;5020755;28;91853;-74
2023/04/10 00:31:07;;;;;;;16.67;11.70;;;;;;;;;;5020582;28;92493;-74
2023/04/10 00:33:33;;;;;;;20.90;11.50;;;;;;;;;;5018690;28;93981;-73
2023/04/10 00:36:00;;;;;;;15.43;10.75;;;;;;;;;;5020886;28;94349;-73
2023/04/10 00:38:26;;;;;;;15.90;10.77;;;;;;;;;;5012863;28;92188;-74
2023/04/10 00:40:52;;;;;;;13.88;10.23;;;;;;;;;;5018341;28;92258;-74
2023/04/10 00:43:19;;;;;;;15.23;9.80;;;;;;;;;;5021384;28;92170;-74
2023/04/10 00:45:45;;;;;;;13.68;9.57;;;;;;;;;;5008808;28;92402;-73
2023/04/10 00:48:14;;;;;;;13.88;9.10;;;;;;;;;;5011232;28;94230;-73
2023/04/10 00:50:40;;;;;;;14.02;9.57;;;;;;;;;;5017111;28;92724;-74
2023/04/10 00:53:06;;;;;;;13.20;9.18;;;;;;;;;;5016414;28;92446;-73
2023/04/10 00:55:33;;;;;;;13.48;9.02;;;;;;;;;;5014664;28;94249;-74
2023/04/10 00:57:59;;;;;;;16.08;8.93;;;;;;;;;;5000484;28;95828;-71
2023/04/10 01:00:26;;;;;;;14.93;9.00;;;;;;;;;;5000166;28;92414;-73
2023/04/10 01:02:53;;;;;;;13.77;9.43;;;;;;;;;;5008124;28;93574;-74
2023/04/10 01:05:21;;;;;;;12.25;9.52;;;;;;;;;;4997498;28;92488;-74
2023/04/10 01:07:53;;;;;;;13.45;9.10;;;;;;;;;;5012473;28;93901;-74
2023/04/10 01:10:29;;;;;;;12.18;8.40;;;;;;;;;;4993753;28;93743;-74
2023/04/10 01:13:07;;;;;;;16.58;9.45;;;;;;;;;;4995878;28;92731;-74
2023/04/10 01:15:40;;;;;;;14.05;8.68;;;;;;;;;;5010761;28;93214;-73
2023/04/10 01:18:13;;;;;;;12.50;8.63;;;;;;;;;;4994099;28;93581;-73
2023/04/10 01:20:40;;;;;;;12.57;9.18;;;;;;;;;;4995839;28;92593;-74
2023/04/10 01:23:25;;;;;;;12.98;9.15;;;;;;;;;;4995580;28;94789;-74
2023/04/10 01:25:55;;;;;;;11.77;8.32;;;;;;;;;;4975511;28;92433;-74
2023/04/10 01:28:40;;;;;;;23.02;8.77;;;;;;;;;;4975689;28;93173;-73
2023/04/10 01:31:07;;;;;;;12.57;8.95;;;;;;;;;;4975606;28;94768;-73
2023/04/10 01:33:45;;;;;;;11.60;8.52;;;;;;;;;;4989649;28;92442;-73
2023/04/10 01:36:12;;;;;;;11.30;9.02;;;;;;;;;;4995251;28;93104;-73
2023/04/10 01:38:41;;;;;;;12.20;8.52;;;;;;;;;;4997925;28;94435;-73
2023/04/10 01:41:07;;;;;;;13.32;9.20;;;;;;;;;;5006276;28;91794;-73
2023/04/10 01:43:34;;;;;;;11.50;8.82;;;;;;;;;;5002240;28;92438;-73
2023/04/10 01:46:02;;;;;;;19.23;9.05;;;;;;;;;;5005372;28;93283;-72
2023/04/10 01:48:29;;;;;;;12.15;8.35;;;;;;;;;;5003819;28;95022;-73
2023/04/10 01:50:55;;;;;;;11.82;8.18;;;;;;;;;;5002108;28;93501;-73
2023/04/10 01:53:23;;;;;;;13.73;8.02;;;;;;;;;;5002624;28;93946;-73
2023/04/10 01:55:49;;;;;;;15.88;8.43;;;;;;;;;;5009693;28;94054;-73
2023/04/10 01:58:16;;;;;;;10.85;7.82;;;;;;;;;;5000274;28;93763;-73
2023/04/10 02:00:42;;;;;;;17.00;8.02;;;;;;;;;;5011831;28;92837;-73
2023/04/10 02:03:09;;;;;;;10.40;8.38;;;;;;;;;;5002019;28;94304;-73
2023/04/10 02:05:52;;;;;;;9.63;7.82;;;;;;;;;;5008621;28;92750;-73
2023/04/10 02:08:30;;;;;;;11.27;7.78;;;;;;;;;;5007190;28;92557;-73
2023/04/10 02:11:16;;;;;;;13.32;8.00;;;;;;;;;;4996810;28;93383;-73
2023/04/10 02:13:42;;;;;;;13.82;9.15;;;;;;;;;;5007184;28;94878;-73
2023/04/10 02:16:11;;;;;;;9.93;7.13;;;;;;;;;;4992973;28;95540;-73
2023/04/10 02:18:38;;;;;;;11.07;8.30;;;;;;;;;;4996582;28;94082;-73
2023/04/10 02:21:06;;;;;;;10.50;7.72;;;;;;;;;;5003391;28;94675;-73
2023/04/10 02:23:32;;;;;;;16.33;8.65;;;;;;;;;;5006523;28;94100;-73
2023/04/10 02:26:04;;;;;;;11.32;7.93;;;;;;;;;;5001628;28;93885;-73
2023/04/10 02:28:31;;;;;;;13.32;8.18;;;;;;;;;;4996828;28;92518;-73
2023/04/10 02:30:57;;;;;;;13.93;8.63;;;;;;;;;;5011921;28;92686;-73
2023/04/10 02:33:23;;;;;;;10.77;7.70;;;;;;;;;;4999476;28;92608;-73
2023/04/10 02:35:49;;;;;;;10.20;7.70;;;;;;;;;;4989059;28;94860;-73
2023/04/10 02:38:16;;;;;;;11.35;8.07;;;;;;;;;;4989906;28;96860;-73
2023/04/10 02:40:42;;;;;;;10.88;7.85;;;;;;;;;;4998001;28;92622;-73
2023/04/10 02:43:09;;;;;;;11.15;7.53;;;;;;;;;;4997431;28;94089;-73
2023/04/10 02:45:35;;;;;;;12.20;8.57;;;;;;;;;;5012421;28;93600;-73
2023/04/10 02:48:01;;;;;;;10.75;8.02;;;;;;;;;;5001862;28;92638;-73
2023/04/10 02:50:29;;;;;;;11.25;8.15;;;;;;;;;;5013574;28;93195;-72
2023/04/10 02:52:55;;;;;;;11.10;7.93;;;;;;;;;;4983216;28;93090;-73
2023/04/10 02:55:22;;;;;;;12.63;8.35;;;;;;;;;;4996095;28;93284;-73
2023/04/10 02:57:48;;;;;;;12.52;7.68;;;;;;;;;;5004186;28;93470;-73
2023/04/10 03:00:15;;;;;;;12.23;8.23;;;;;;;;;;5000649;28;92550;-72
2023/04/10 03:02:41;;;;;;;11.52;8.18;;;;;;;;;;4997152;28;97036;-72
2023/04/10 03:05:08;;;;;;;11.20;8.18;;;;;;;;;;4998024;28;93403;-73
2023/04/10 03:07:34;;;;;;;12.45;8.10;;;;;;;;;;5011790;28;93021;-73
2023/04/10 03:10:00;;;;;;;13.05;7.88;;;;;;;;;;4996861;28;92941;-73
2023/04/10 03:12:27;;;;;;;9.82;7.90;;;;;;;;;;4995532;28;92969;-73
2023/04/10 03:14:53;;;;;;;11.85;7.70;;;;;;;;;;4994829;28;93593;-73
2023/04/10 03:17:19;;;;;;;11.40;7.80;;;;;;;;;;4996637;28;93434;-74
2023/04/10 03:19:46;;;;;;;14.57;8.02;;;;;;;;;;5009966;28;91957;-73
2023/04/10 03:22:12;;;;;;;12.27;8.38;;;;;;;;;;5004039;28;94098;-73
2023/04/10 03:24:39;;;;;;;11.25;8.05;;;;;;;;;;5009540;28;93597;-73
2023/04/10 03:27:06;;;;;;;11.65;8.23;;;;;;;;;;5004470;28;94888;-73
2023/04/10 03:29:32;;;;;;;12.63;8.38;;;;;;;;;;5004011;28;95587;-73
2023/04/10 03:31:58;;;;;;;12.73;8.02;;;;;;;;;;4992385;28;94992;-73
2023/04/10 03:34:25;;;;;;;10.23;7.75;;;;;;;;;;5002586;28;92434;-72
2023/04/10 03:36:51;;;;;;;14.23;8.73;;;;;;;;;;5004812;28;93469;-73
2023/04/10 03:39:17;;;;;;;10.50;8.32;;;;;;;;;;4984692;28;92616;-73
2023/04/10 03:41:44;;;;;;;16.08;7.90;;;;;;;;;;4992172;28;94292;-73
2023/04/10 03:44:10;;;;;;;11.80;8.55;;;;;;;;;;4989895;28;93229;-74
2023/04/10 03:46:36;;;;;;;11.18;7.95;;;;;;;;;;5001787;28;92493;-74
2023/04/10 03:49:03;;;;;;;12.63;8.23;;;;;;;;;;5009654;28;93241;-73
2023/04/10 03:51:30;;;;;;;9.90;7.68;;;;;;;;;;5002196;28;96936;-73
2023/04/10 03:53:56;;;;;;;11.77;8.30;;;;;;;;;;5013421;28;92570;-73
2023/04/10 03:56:23;;;;;;;11.93;7.97;;;;;;;;;;5013086;28;93147;-73
2023/04/10 03:58:49;;;;;;;13.55;8.40;;;;;;;;;;5006261;28;93995;-73
2023/04/10 04:01:15;;;;;;;12.52;8.60;;;;;;;;;;4997584;28;94617;-73
2023/04/10 04:03:42;;;;;;;13.63;8.32;;;;;;;;;;5012794;28;94454;-73
2023/04/10 04:06:08;;;;;;;11.48;8.32;;;;;;;;;;5014365;28;92628;-73
2023/04/10 04:08:37;;;;;;;11.35;8.75;;;;;;;;;;5010033;28;93103;-73
2023/04/10 04:11:04;;;;;;;12.70;8.30;;;;;;;;;;5004552;28;93664;-73
2023/04/10 04:13:31;;;;;;;10.63;8.13;;;;;;;;;;4995911;28;92819;-72
2023/04/10 04:15:57;;;;;;;10.27;8.32;;;;;;;;;;4995538;28;95028;-73
2023/04/10 04:18:23;;;;;;;13.05;8.85;;;;;;;;;;5007003;28;93571;-73
2023/04/10 04:20:50;;;;;;;13.85;8.75;;;;;;;;;;4996299;28;92423;-73
2023/04/10 04:23:16;;;;;;;11.65;8.25;;;;;;;;;;5004231;28;93399;-73
2023/04/10 04:25:42;;;;;;;13.00;8.93;;;;;;;;;;5014559;28;92513;-73
2023/04/10 04:28:10;;;;;;;12.48;8.40;;;;;;;;;;5014668;28;93531;-73
2023/04/10 04:30:37;;;;;;;14.55;9.02;;;;;;;;;;4999541;28;93387;-73
2023/04/10 04:33:03;;;;;;;12.45;8.70;;;;;;;;;;4995443;28;92221;-72
2023/04/10 04:35:29;;;;;;;14.43;8.70;;;;;;;;;;4996970;28;93543;-73
2023/04/10 04:37:56;;;;;;;11.43;8.13;;;;;;;;;;5003704;28;94582;-73
2023/04/10 04:40:22;;;;;;;15.07;9.07;;;;;;;;;;4987321;28;94866;-73
2023/04/10 04:42:48;;;;;;;10.93;8.35;;;;;;;;;;4994743;28;93484;-73
2023/04/10 04:45:15;;;;;;;14.93;9.55;;;;;;;;;;4995527;28;92854;-73
2023/04/10 04:47:41;;;;;;;15.85;10.43;;;;;;;;;;4996265;28;93384;-73
2023/04/10 04:50:08;;;;;;;13.60;9.73;;;;;;;;;;4995259;28;93434;-73
2023/04/10 04:52:34;;;;;;;18.42;10.25;;;;;;;;;;4999354;28;92474;-72
2023/04/10 04:55:00;;;;;;;13.95;9.85;;;;;;;;;;5015754;28;95092;-73
2023/04/10 04:57:27;;;;;;;13.88;9.65;;;;;;;;;;5004133;28;93736;-72
2023/04/10 04:59:53;;;;;;;15.90;10.07;;;;;;;;;;5000022;28;92507;-72
2023/04/10 05:02:21;;;;;;;16.05;10.18;;;;;;;;;;5010450;28;93531;-73
2023/04/10 05:04:48;;;;;;;16.17;10.05;;;;;;;;;;5010643;28;94947;-73
2023/04/10 05:07:14;;;;;;;15.48;9.98;;;;;;;;;;5000141;28;95981;-73
2023/04/10 05:09:40;;;;;;;17.48;10.32;;;;;;;;;;5002438;28;93553;-72
2023/04/10 05:12:07;;;;;;;16.13;11.30;;;;;;;;;;5006507;28;92432;-73
2023/04/10 05:14:33;;;;;;;15.48;12.00;;;;;;;;;;4998001;28;93136;-73
2023/04/10 05:16:59;;;;;;;19.05;12.05;;;;;;;;;;5001759;28;93532;-73
2023/04/10 05:19:29;;;;;;;20.58;11.52;;;;;;;;;;4992443;28;92622;-73
2023/04/10 05:21:55;;;;;;;18.48;10.70;;;;;;;;;;4998231;28;93435;-73
2023/04/10 05:24:21;;;;;;;19.85;10.73;;;;;;;;;;5007698;28;92586;-73
2023/04/10 05:26:47;;;;;;;15.48;9.73;;;;;;;;;;5006282;28;92862;-73
2023/04/10 05:29:14;;;;;;;21.42;9.68;;;;;;;;;;5006864;28;95764;-73
2023/04/10 05:31:40;;;;;;;12.77;9.60;;;;;;;;;;5000837;28;94323;-73
2023/04/10 05:34:07;;;;;;;16.15;9.85;;;;;;;;;;5004140;28;94179;-74
2023/04/10 05:36:34;;;;;;;15.68;9.73;;;;;;;;;;4995337;28;93586;-73
2023/04/10 05:39:00;;;;;;;13.40;9.70;;;;;;;;;;4992491;28;92604;-73
2023/04/10 05:41:26;;;;;;;13.32;9.90;;;;;;;;;;5004757;28;93225;-73
2023/04/10 05:43:52;;;;;;;14.90;9.85;;;;;;;;;;5012705;28;95013;-74
2023/04/10 05:46:19;;;;;;;11.38;8.85;;;;;;;;;;5003278;28;93183;-73
2023/04/10 05:48:45;;;;;;;13.63;9.07;;;;;;;;;;4995648;28;93764;-73
2023/04/10 05:51:11;;;;;;;15.82;9.20;;;;;;;;;;5012069;28;92456;-73
2023/04/10 05:53:38;;;;;;;12.57;8.77;;;;;;;;;;5004969;28;94862;-73
2023/04/10 05:56:04;;;;;;;13.02;9.50;;;;;;;;;;4994597;28;93480;-73
2023/04/10 05:58:30;;;;;;;13.93;8.57;;;;;;;;;;4996845;28;92476;-73
2023/04/10 06:00:57;;;;;;;12.60;8.52;;;;;;;;;;4998904;28;92801;-73
2023/04/10 06:03:26;;;;;;;12.80;9.38;;;;;;;;;;5011289;28;93441;-73
2023/04/10 06:05:52;;;;;;;16.08;9.13;;;;;;;;;;5010608;28;92403;-73
2023/04/10 06:08:19;;;;;;;13.75;8.57;;;;;;;;;;5010237;28;93723;-73
2023/04/10 06:10:45;;;;;;;10.85;8.10;;;;;;;;;;5004878;28;91715;-73
2023/04/10 06:13:13;;;;;;;12.50;8.68;;;;;;;;;;4994478;28;92733;-73
2023/04/10 06:15:40;;;;;;;12.85;9.07;;;;;;;;;;4993140;28;93609;-73
2023/04/10 06:18:06;;;;;;;11.48;8.85;;;;;;;;;;4994981;28;94900;-73
2023/04/10 06:20:32;;;;;;;11.85;8.25;;;;;;;;;;4994543;28;96022;-73
2023/04/10 06:22:59;;;;;;;17.40;8.57;;;;;;;;;;4995091;28;93300;-73
2023/04/10 06:25:25;;;;;;;14.02;7.43;;;;;;;;;;4996104;28;92473;-73
2023/04/10 06:27:52;;;;;;;10.95;7.75;;;;;;;;;;4997609;28;92464;-73
2023/04/10 06:30:18;;;;;;;11.20;7.85;;;;;;;;;;4994602;28;92455;-73
2023/04/10 06:32:45;;;;;;;16.08;7.90;;;;;;;;;;4994483;28;93116;-73
2023/04/10 06:35:11;;;;;;;12.85;7.82;;;;;;;;;;4994786;28;92561;-73
2023/04/10 06:37:38;;;;;;;10.50;7.53;;;;;;;;;;4992733;28;92522;-74
2023/04/10 06:40:10;;;;;;;11.65;7.93;;;;;;;;;;4993882;28;93474;-71
2023/04/10 06:42:37;;;;;;;11.38;7.75;;;;;;;;;;4992675;28;95619;-77
2023/04/10 06:45:03;;;;;;;11.30;7.40;;;;;;;;;;4992740;28;92545;-77
2023/04/10 06:47:30;;;;;;;12.25;7.10;;;;;;;;;;4996668;28;96367;-78
2023/04/10 06:49:57;;;;;;;10.20;7.55;;;;;;;;;;5000547;28;92697;-78
2023/04/10 06:52:23;;;;;;;21.27;7.55;;;;;;;;;;5006705;28;94550;-77
2023/04/10 06:54:50;;;;;;;11.93;7.78;;;;;;;;;;4998993;28;92610;-77
2023/04/10 06:57:17;;;;;;;12.55;7.78;;;;;;;;;;4986265;28;92674;-77
2023/04/10 06:59:44;;;;;;;12.18;8.18;;;;;;;;;;4992185;28;93180;-78
2023/04/10 07:02:10;;;;;;;8.70;6.93;;;;;;;;;;5014142;28;93206;-77
2023/04/10 07:04:37;;;;;;;10.13;7.60;;;;;;;;;;5014057;28;92451;-79
2023/04/10 07:07:04;;;;;;;9.27;7.40;;;;;;;;;;5007610;28;94771;-78
2023/04/10 07:09:30;;;;;;;9.88;7.70;;;;;;;;;;5013429;28;93662;-80
2023/04/10 07:11:56;;;;;;;10.10;7.10;;;;;;;;;;5011265;28;93081;-78
2023/04/10 07:14:23;;;;;;;9.48;6.97;;;;;;;;;;4991991;28;93323;-78
2023/04/10 07:16:50;;;;;;;10.38;7.55;;;;;;;;;;4993111;28;93737;-77
2023/04/10 07:19:16;;;;;;;11.00;7.70;;;;;;;;;;4995652;28;93251;-77
2023/04/10 07:21:42;;;;;;;8.70;6.97;;;;;;;;;;4998183;28;93533;-80
2023/04/10 07:24:09;;;;;;;11.77;8.63;;;;;;;;;;5000720;28;92629;-78
2023/04/10 07:26:35;;;;;;;10.10;7.35;;;;;;;;;;4998768;28;92601;-77
2023/04/10 07:29:01;;;;;;;12.38;7.78;;;;;;;;;;5015624;28;93457;-79
2023/04/10 07:31:28;;;;;;;11.38;8.55;;;;;;;;;;5017008;28;94849;-77
2023/04/10 07:33:54;;;;;;;9.80;7.65;;;;;;;;;;5003627;28;93471;-78
2023/04/10 07:36:21;;;;;;;11.13;7.88;;;;;;;;;;4997858;28;92891;-78
2023/04/10 07:38:47;;;;;;;14.18;8.23;;;;;;;;;;4983518;28;94366;-77
2023/04/10 07:41:14;;;;;;;19.58;8.90;;;;;;;;;;4991656;28;94411;-77
2023/04/10 07:43:40;;;;;;;11.23;7.60;;;;;;;;;;4993816;28;94129;-77
2023/04/10 07:46:06;;;;;;;11.52;8.65;;;;;;;;;;5002704;28;93964;-77
2023/04/10 07:48:33;;;;;;;13.00;7.95;;;;;;;;;;5003292;28;92882;-78
2023/04/10 07:50:59;;;;;;;11.30;8.35;;;;;;;;;;4994399;28;92489;-78
2023/04/10 07:53:26;;;;;;;16.98;10.98;;;;;;;;;;4999012;28;93748;-78
2023/04/10 07:55:52;;;;;;;20.80;12.88;;;;;;;;;;4994110;28;95271;-77
2023/04/10 07:58:18;;;;;;;17.52;11.02;;;;;;;;;;5003602;28;95907;-78
2023/04/10 08:00:45;;;;;;;15.90;9.75;;;;;;;;;;4990289;28;93485;-78
2023/04/10 08:03:12;;;;;;;24.27;13.25;;;;;;;;;;4996152;28;92527;-79
2023/04/10 08:05:39;;;;;;;43.28;21.17;;;;;;;;;;4995785;28;93242;-78
2023/04/10 08:08:05;;;;;;;55.58;25.70;;;;;;;;;;5000429;28;93619;-78
2023/04/10 08:10:32;;;;;;;31.20;15.23;;;;;;;;;;5015752;28;92437;-78
2023/04/10 08:12:58;;;;;;;50.78;26.10;;;;;;;;;;5016266;28;93144;-79
2023/04/10 08:15:24;;;;;;;49.90;28.08;;;;;;;;;;4976365;28;93493;-77
2023/04/10 08:17:51;;;;;;;19.38;11.60;;;;;;;;;;4978398;28;94370;-78
2023/04/10 08:20:17;;;;;;;11.30;8.13;;;;;;;;;;4985098;28;95491;-79
2023/04/10 08:22:44;;;;;;;12.07;8.07;;;;;;;;;;4994292;28;92850;-78
2023/04/10 08:25:10;;;;;;;13.60;9.25;;;;;;;;;;4997683;28;95995;-78
2023/04/10 08:27:36;;;;;;;12.88;9.15;;;;;;;;;;5001637;28;93467;-78
2023/04/10 08:30:03;;;;;;;11.77;9.10;;;;;;;;;;4997406;28;92380;-79
2023/04/10 08:32:29;;;;;;;12.75;8.88;;;;;;;;;;4993158;28;93275;-78
2023/04/10 08:34:56;;;;;;;12.65;8.27;;;;;;;;;;4997826;28;93974;-78
2023/04/10 08:37:23;;;;;;;12.07;8.90;;;;;;;;;;5008997;28;91762;-77
2023/04/10 08:39:49;;;;;;;12.07;8.30;;;;;;;;;;4999250;28;93896;-78
2023/04/10 08:42:16;;;;;;;11.43;8.18;;;;;;;;;;5016821;28;92670;-78
2023/04/10 08:44:42;;;;;;;11.07;8.02;;;;;;;;;;5014450;28;94760;-78
2023/04/10 08:47:09;;;;;;;12.02;8.95;;;;;;;;;;5002059;28;93516;-78
2023/04/10 08:49:37;;;;;;;10.45;7.40;;;;;;;;;;5004648;28;93072;-78
2023/04/10 08:52:06;;;;;;;12.60;8.85;;;;;;;;;;5016809;28;93180;-79
2023/04/10 08:54:33;;;;;;;11.02;8.32;;;;;;;;;;5014878;28;93767;-79
2023/04/10 08:57:00;;;;;;;15.40;9.55;;;;;;;;;;5016435;28;92506;-79
2023/04/10 08:59:28;;;;;;;13.73;8.75;;;;;;;;;;4988647;28;93763;-79
2023/04/10 09:01:56;;;;;;;11.20;8.55;;;;;;;;;;4993725;28;92894;-79
2023/04/10 09:04:23;;;;;;;10.20;8.07;;;;;;;;;;4999558;28;93500;-81
2023/04/10 09:06:50;;;;;;;12.20;8.35;;;;;;;;;;4999874;28;92568;-77
2023/04/10 09:09:17;;;;;;;15.75;8.80;;;;;;;;;;5011847;28;94879;-76
2023/04/10 09:11:54;;;;;;;10.23;8.48;;;;;;;;;;5004145;28;95597;-78
2023/04/10 09:14:20;;;;;;;12.05;8.23;;;;;;;;;;4992456;28;94509;-78
2023/04/10 09:16:47;;;;;;;14.82;8.30;;;;;;;;;;4988242;28;92500;-77
2023/04/10 09:19:28;;;;;;;9.48;7.85;;;;;;;;;;4994902;28;92436;-80
2023/04/10 09:21:55;;;;;;;11.18;8.27;;;;;;;;;;5002805;28;92433;-78
2023/04/10 09:24:24;;;;;;;17.30;8.07;;;;;;;;;;4989348;28;93102;-79
2023/04/10 09:26:51;;;;;;;10.67;7.87;;;;;;;;;;4975168;28;93046;-74
2023/04/10 09:29:17;;;;;;;16.80;8.38;;;;;;;;;;4987399;28;92961;-80
2023/04/10 09:31:44;;;;;;;11.75;8.13;;;;;;;;;;4999795;28;93109;-78
2023/04/10 09:34:10;;;;;;;11.18;7.95;;;;;;;;;;4995024;28;97082;-79
2023/04/10 09:36:37;;;;;;;8.93;7.97;;;;;;;;;;4991853;28;92575;-76
2023/04/10 09:39:04;;;;;;;13.48;9.38;;;;;;;;;;4975159;28;93136;-76
2023/04/10 09:41:31;;;;;;;13.90;9.32;;;;;;;;;;4988766;28;93377;-77
2023/04/10 09:44:07;;;;;;;13.98;9.85;;;;;;;;;;5007465;28;92356;-74
2023/04/10 09:46:34;;;;;;;15.52;9.13;;;;;;;;;;4982247;28;93905;-79
2023/04/10 09:49:03;;;;;;;13.55;8.88;;;;;;;;;;4988995;28;92853;-83
2023/04/10 09:51:30;;;;;;;12.70;7.90;;;;;;;;;;4998790;28;93207;-81
2023/04/10 09:53:57;;;;;;;15.15;9.38;;;;;;;;;;5000588;28;93718;-76
2023/04/10 09:56:25;;;;;;;15.35;10.23;;;;;;;;;;5013029;28;92674;-81
2023/04/10 09:58:52;;;;;;;9.73;7.30;;;;;;;;;;5004461;28;94855;-77
2023/04/10 10:01:20;;;;;;;9.55;7.15;;;;;;;;;;4997708;28;93434;-80
2023/04/10 10:03:46;;;;;;;10.93;7.85;;;;;;;;;;5016786;28;92356;-79
2023/04/10 10:06:13;;;;;;;9.80;7.53;;;;;;;;;;5014242;28;94684;-76
2023/04/10 10:08:39;;;;;;;10.27;7.75;;;;;;;;;;5014663;28;92595;-78
2023/04/10 10:11:08;;;;;;;9.93;7.28;;;;;;;;;;5015309;28;93253;-83
2023/04/10 10:13:47;;;;;;;10.60;6.95;;;;;;;;;;4996925;28;93337;-78
2023/04/10 10:16:30;;;;;;;12.52;9.13;;;;;;;;;;4986924;28;91700;-75
2023/04/10 10:19:05;;;;;;;9.60;7.53;;;;;;;;;;5002987;28;93564;-76
2023/04/10 10:21:33;;;;;;;9.20;6.90;;;;;;;;;;4986597;28;93695;-77
2023/04/10 10:24:00;;;;;;;9.70;7.40;;;;;;;;;;4992979;28;94891;-73
2023/04/10 10:26:28;;;;;;;10.77;7.85;;;;;;;;;;5006326;28;95471;-75
2023/04/10 10:28:55;;;;;;;10.82;7.20;;;;;;;;;;4995434;28;92556;-74
2023/04/10 10:31:24;;;;;;;10.10;7.53;;;;;;;;;;4987478;28;93109;-73
2023/04/10 10:33:51;;;;;;;8.93;6.70;;;;;;;;;;4974750;28;93469;-76
2023/04/10 10:36:18;;;;;;;9.98;6.88;;;;;;;;;;4989775;28;92508;-75
2023/04/10 10:39:11;;;;;;;9.13;6.65;;;;;;;;;;4993627;28;93038;-76
2023/04/10 10:41:42;;;;;;;12.13;6.68;;;;;;;;;;4980980;28;92588;-76
2023/04/10 10:44:08;;;;;;;;;;;;;;;;;;4994787;28;92550;-75
2023/04/10 10:46:57;;;;;;;13.05;6.55;;;;;;;;;;4997530;28;122924;-75
2023/04/10 10:49:44;;;;;;;8.63;7.28;;;;;;;;;;4991278;28;94917;-76
2023/04/10 10:52:10;;;;;;;8.45;6.78;;;;;;;;;;4993165;28;95446;-75
2023/04/10 10:54:36;;;;;;;12.00;6.88;;;;;;;;;;4989465;28;93384;-78
2023/04/10 10:57:44;;;;;;;8.43;6.63;;;;;;;;;;4980228;28;93253;-78
2023/04/10 11:00:11;;;;;;;8.68;6.47;;;;;;;;;;4997799;28;93148;-78
2023/04/10 11:02:38;;;;;;;10.15;6.88;;;;;;;;;;4996324;28;94467;-81
2023/04/10 11:05:04;;;;;;;10.02;7.20;;;;;;;;;;4990894;28;92486;-77
2023/04/10 11:07:49;;;;;;;10.20;6.80;;;;;;;;;;4990426;28;93569;-77
2023/04/10 11:10:15;;;;;;;8.43;6.75;;;;;;;;;;4999740;28;93455;-78
2023/04/10 11:13:08;;;;;;;12.77;6.88;;;;;;;;;;4993000;28;93926;-78
2023/04/10 11:15:34;;;;;;;8.93;6.40;;;;;;;;;;4970666;28;95813;-78
2023/04/10 11:18:01;;;;;;;11.38;6.82;;;;;;;;;;4990902;28;93267;-79
2023/04/10 11:20:27;;;;;;;6.60;5.82;;;;;;;;;;4992292;28;93231;-84
2023/04/10 11:23:12;;;;;;;7.88;6.68;;;;;;;;;;4974081;28;93400;-82
2023/04/10 11:25:57;;;;;;;10.07;6.43;;;;;;;;;;4994135;28;92458;-81
2023/04/10 11:28:32;;;;;;;14.60;7.05;;;;;;;;;;4994105;28;93164;-79
2023/04/10 11:31:15;;;;;;;8.43;5.90;;;;;;;;;;4993345;28;93292;-79
2023/04/10 11:33:41;;;;;;;8.40;6.30;;;;;;;;;;4995983;28;91738;-79
2023/04/10 11:36:07;;;;;;;11.25;7.03;;;;;;;;;;4996015;28;95281;-81
2023/04/10 11:38:34;;;;;;;8.35;5.40;;;;;;;;;;4990762;28;94431;-80
2023/04/10 11:41:02;;;;;;;9.93;6.28;;;;;;;;;;4989494;28;96252;-80
2023/04/10 11:43:29;;;;;;;15.15;5.80;;;;;;;;;;4993332;28;93523;-81
2023/04/10 11:46:03;;;;;;;7.18;6.13;;;;;;;;;;5008316;28;92462;-79
2023/04/10 11:48:30;;;;;;;7.13;5.97;;;;;;;;;;4979373;28;93126;-81
2023/04/10 11:50:56;;;;;;;8.15;6.45;;;;;;;;;;5002324;28;93938;-80
2023/04/10 11:53:22;;;;;;;8.23;6.07;;;;;;;;;;4993552;28;92512;-80
2023/04/10 11:55:49;;;;;;;9.38;6.28;;;;;;;;;;4996473;28;93058;-80
2023/04/10 11:58:22;;;;;;;9.10;6.78;;;;;;;;;;4993604;28;91698;-80
2023/04/10 12:00:58;;;;;;;6.80;5.07;;;;;;;;;;4992012;28;93430;-80
2023/04/10 12:03:34;;;;;;;6.50;5.90;;;;;;;;;;4991987;28;93527;-77
2023/04/10 12:06:02;;;;;;;8.77;5.57;;;;;;;;;;4991859;28;94822;-78
2023/04/10 12:08:32;;;;;;;5.72;5.00;;;;;;;;;;4996219;28;95729;-80
2023/04/10 12:10:59;;;;;;;11.05;5.28;;;;;;;;;;4991579;28;93287;-85
2023/04/10 12:13:26;;;;;;;7.80;5.20;;;;;;;;;;4997493;28;92580;-78
2023/04/10 12:15:53;;;;;;;10.40;5.15;;;;;;;;;;4995937;28;93574;-79
2023/04/10 12:18:20;;;;;;;6.45;4.88;;;;;;;;;;4999801;28;93833;-78
2023/04/10 12:20:46;;;;;;;5.35;4.05;;;;;;;;;;5001229;28;93415;-80
2023/04/10 12:23:13;;;;;;;7.35;4.25;;;;;;;;;;4994285;28;92997;-80
2023/04/10 12:25:40;;;;;;;4.90;4.40;;;;;;;;;;5009336;28;92515;-83
2023/04/10 12:28:06;;;;;;;11.30;4.05;;;;;;;;;;4996896;28;94049;-81
2023/04/10 12:30:33;;;;;;;6.70;4.10;;;;;;;;;;5000085;28;95828;-81
2023/04/10 12:33:04;;;;;;;10.18;4.15;;;;;;;;;;5015462;28;92486;-81
2023/04/10 12:35:37;;;;;;;5.47;4.15;;;;;;;;;;4996571;28;93451;-82
2023/04/10 12:38:04;;;;;;;4.32;3.92;;;;;;;;;;5006283;28;93465;-81
2023/04/10 12:40:30;;;;;;;8.15;3.72;;;;;;;;;;4999496;28;92672;-81
2023/04/10 12:42:56;;;;;;;5.88;3.63;;;;;;;;;;4994406;28;93388;-81
2023/04/10 12:45:42;;;;;;;3.90;3.50;;;;;;;;;;5001996;28;92464;-81
2023/04/10 12:48:08;;;;;;;8.32;3.28;;;;;;;;;;4997640;28;93147;-81
2023/04/10 12:50:44;;;;;;;5.55;3.22;;;;;;;;;;4995620;28;93234;-81
2023/04/10 12:53:12;;;;;;;3.78;3.40;;;;;;;;;;4994945;28;92716;-81
2023/04/10 12:55:41;;;;;;;3.85;3.22;;;;;;;;;;5009783;28;94843;-81
2023/04/10 12:58:17;;;;;;;7.03;4.90;;;;;;;;;;4999288;28;93449;-81
2023/04/10 13:00:43;;;;;;;3.80;3.40;;;;;;;;;;4998179;28;92464;-81
2023/04/10 13:03:10;;;;;;;4.15;3.00;;;;;;;;;;4993948;28;93409;-81
2023/04/10 13:05:36;;;;;;;3.70;3.30;;;;;;;;;;5006586;28;92390;-81
2023/04/10 13:08:02;;;;;;;8.43;3.42;;;;;;;;;;5004329;28;93181;-81
2023/04/10 13:10:29;;;;;;;5.03;3.42;;;;;;;;;;5008234;28;93400;-81
2023/04/10 13:12:55;;;;;;;3.25;2.95;;;;;;;;;;5016206;28;92065;-81
2023/04/10 13:15:21;;;;;;;5.38;2.97;;;;;;;;;;5015303;28;93425;-81
2023/04/10 13:17:48;;;;;;;4.80;3.42;;;;;;;;;;5006608;28;93368;-81
2023/04/10 13:20:14;;;;;;;6.53;3.20;;;;;;;;;;4999779;28;94940;-81
2023/04/10 13:22:41;;;;;;;6.53;3.65;;;;;;;;;;4998145;28;95465;-81
2023/04/10 13:25:07;;;;;;;3.15;2.85;;;;;;;;;;5003334;28;92555;-81
2023/04/10 13:27:34;;;;;;;4.43;2.95;;;;;;;;;;5007956;28;92385;-80
2023/04/10 13:30:00;;;;;;;3.95;3.22;;;;;;;;;;4993459;28;95057;-81
2023/04/10 13:32:26;;;;;;;3.33;3.03;;;;;;;;;;4995972;28;92653;-81
2023/04/10 13:34:53;;;;;;;3.30;2.67;;;;;;;;;;5013551;28;94253;-81
2023/04/10 13:37:19;;;;;;;3.42;3.13;;;;;;;;;;5007317;28;93200;-81
2023/04/10 13:39:46;;;;;;;7.68;3.28;;;;;;;;;;4994320;28;92533;-81
2023/04/10 13:42:12;;;;;;;4.00;2.90;;;;;;;;;;4995368;28;93219;-81
2023/04/10 13:44:38;;;;;;;8.60;3.63;;;;;;;;;;4998595;28;95630;-81
2023/04/10 13:47:05;;;;;;;2.95;2.67;;;;;;;;;;5003537;28;95569;-81
2023/04/10 13:49:31;;;;;;;3.75;3.35;;;;;;;;;;5007664;28;94151;-81
2023/04/10 13:51:58;;;;;;;5.55;3.63;;;;;;;;;;4995555;28;92384;-81
2023/04/10 13:54:25;;;;;;;4.55;3.63;;;;;;;;;;4988708;28;94560;-81
2023/04/10 13:56:53;;;;;;;4.85;3.60;;;;;;;;;;5002596;28;92841;-82
2023/04/10 13:59:20;;;;;;;4.00;3.13;;;;;;;;;;5008212;28;92680;-81
2023/04/10 14:01:46;;;;;;;7.10;3.70;;;;;;;;;;5015844;28;93098;-81
2023/04/10 14:04:12;;;;;;;5.22;4.00;;;;;;;;;;5015011;28;93405;-81
2023/04/10 14:06:39;;;;;;;4.22;3.53;;;;;;;;;;5009857;28;92447;-82
2023/04/10 14:09:05;;;;;;;7.05;3.20;;;;;;;;;;5005629;28;96542;-85
2023/04/10 14:11:32;;;;;;;8.27;3.50;;;;;;;;;;5011819;28;92486;-84
2023/04/10 14:13:58;;;;;;;6.97;3.03;;;;;;;;;;5015076;28;92978;-86
2023/04/10 14:16:25;;;;;;;4.10;3.50;;;;;;;;;;5010745;28;93601;-85
2023/04/10 14:18:51;;;;;;;12.18;6.40;;;;;;;;;;5007984;28;92468;-78
2023/04/10 14:21:19;;;;;;;9.40;5.50;;;;;;;;;;5007027;28;92776;-85
2023/04/10 14:23:46;;;;;;;5.70;3.88;;;;;;;;;;4994324;28;93535;-82
2023/04/10 14:26:12;;;;;;;4.70;3.30;;;;;;;;;;4993741;28;91747;-82
2023/04/10 14:28:39;;;;;;;3.30;3.00;;;;;;;;;;5008544;28;93885;-82
2023/04/10 14:31:06;;;;;;;9.13;3.67;;;;;;;;;;5008529;28;93336;-83
2023/04/10 14:33:33;;;;;;;6.55;3.83;;;;;;;;;;4973251;28;94891;-82
2023/04/10 14:36:00;;;;;;;6.22;3.95;;;;;;;;;;4994061;28;94366;-79
2023/04/10 14:38:26;;;;;;;3.90;3.53;;;;;;;;;;5006081;28;93025;-78